Portada
METAR-TAF:

METAR-TAF

Aeroports :

Aeroport Andorra - la Seu d'Urgell

La Seu d'Urgell, Espanya

latitud: 42-20-29N, longitud: 001-24-17E, altitud: 802 m

Observació

L'informe es va fer fa 3 hores i 20 minuts, a les 16:00 UTC
Vent 6 kt del Oest/Sud-Oest, variant entre Sud/Sud-Oest i Oest
Temperatura 9°C
Humitat 76%
Pressió 1019 hPa
Visibilitat 10 km o més
Escasses núvols a una alçada de 3900 ft
Núvols disperses a una alçada de 6800 ft

METAR: LESU 261600Z 24006KT 210V270 9999 FEW039 SCT068 09/05 Q1019

Hora: 20:20 (19:20 UTC)

Pronòstic

L'informe es va fer fa 5 hores i 20 minuts, a les 14:00 UTC
Pronòstic vàlid del 26 a les 15 UTC al 27 a les 15 UTC
Vent 3 kt amb direcció variable
Visibilitat 10 km o més
Escasses núvols a una alçada de 1400 ft
Probabilitat 30% :
Temporalment
l' 27 a les 03 UTC al 27 a les 09 UTC
Visibilitat: 4000 m
Cel ennuvolat a una alçada de 800 ft
boirina

TAF: LESU 261400Z 2615/2715 VRB03KT 9999 FEW014 TX10/2714Z TN01/2707Z PROB30 TEMPO 2703/2709 4000 BR BKN008

Observacions i pronòstics meteorològics de més de 4000 aeroports (METAR i TAF).

Les estacions disponibles són els punts grocs i vermells al mapa.

Posi el ratolí al punt desitjat per veure el nom de l'estació.

Feu clic per veure les observacions i els pronòstics meteorològics.

Per canviar el mapa: feu clic els botons verds amb una creu de color negre per apropar; al botó verd amb un guió per allunyar la imatge; o en les fletxes verdes per a mapes adjacents.


METAR-TAF: